sensor_id;sensor_type;location;lat;lon;timestamp;pressure;altitude;pressure_sealevel;temperature;humidity
5753;BME280;2901;42.140;24.760;2023-07-31T00:01:14;98815.88;;;25.41;53.37
5753;BME280;2901;42.140;24.760;2023-07-31T00:03:39;98821.16;;;25.41;53.17
5753;BME280;2901;42.140;24.760;2023-07-31T00:06:05;98811.53;;;25.28;53.62
5753;BME280;2901;42.140;24.760;2023-07-31T00:08:30;98818.63;;;25.28;54.01
5753;BME280;2901;42.140;24.760;2023-07-31T00:10:55;98812.63;;;25.37;53.41
5753;BME280;2901;42.140;24.760;2023-07-31T00:13:21;98813.69;;;25.46;53.29
5753;BME280;2901;42.140;24.760;2023-07-31T00:15:46;98810.72;;;25.50;52.68
5753;BME280;2901;42.140;24.760;2023-07-31T00:18:11;98813.38;;;25.50;53.14
5753;BME280;2901;42.140;24.760;2023-07-31T00:20:37;98819.19;;;25.55;52.78
5753;BME280;2901;42.140;24.760;2023-07-31T00:23:02;98820.38;;;25.51;52.83
5753;BME280;2901;42.140;24.760;2023-07-31T00:25:27;98815.63;;;25.44;52.60
5753;BME280;2901;42.140;24.760;2023-07-31T00:27:53;98842.06;;;25.56;52.73
5753;BME280;2901;42.140;24.760;2023-07-31T00:30:18;98836.03;;;25.54;52.47
5753;BME280;2901;42.140;24.760;2023-07-31T00:32:43;98835.91;;;25.56;52.92
5753;BME280;2901;42.140;24.760;2023-07-31T00:35:09;98835.28;;;25.52;52.75
5753;BME280;2901;42.140;24.760;2023-07-31T00:37:34;98833.50;;;25.53;52.94
5753;BME280;2901;42.140;24.760;2023-07-31T00:40:00;98827.69;;;25.48;53.27
5753;BME280;2901;42.140;24.760;2023-07-31T00:42:25;98826.84;;;25.47;53.54
5753;BME280;2901;42.140;24.760;2023-07-31T00:44:51;98833.38;;;25.54;53.00
5753;BME280;2901;42.140;24.760;2023-07-31T00:47:16;98830.25;;;25.60;52.95
5753;BME280;2901;42.140;24.760;2023-07-31T00:49:41;98828.44;;;25.61;53.03
5753;BME280;2901;42.140;24.760;2023-07-31T00:52:09;98832.41;;;25.66;52.95
5753;BME280;2901;42.140;24.760;2023-07-31T00:54:35;98837.72;;;25.66;52.88
5753;BME280;2901;42.140;24.760;2023-07-31T00:57:00;98840.28;;;25.68;53.01
5753;BME280;2901;42.140;24.760;2023-07-31T00:59:26;98846.63;;;25.65;52.69
5753;BME280;2901;42.140;24.760;2023-07-31T01:01:51;98831.47;;;25.67;52.91
5753;BME280;2901;42.140;24.760;2023-07-31T01:04:17;98838.31;;;25.70;52.74
5753;BME280;2901;42.140;24.760;2023-07-31T01:07:11;98838.22;;;25.71;52.95
5753;BME280;2901;42.140;24.760;2023-07-31T01:09:57;98846.53;;;25.67;53.16
5753;BME280;2901;42.140;24.760;2023-07-31T01:12:27;98843.03;;;25.66;53.05
5753;BME280;2901;42.140;24.760;2023-07-31T01:15:07;98850.97;;;25.66;52.98
5753;BME280;2901;42.140;24.760;2023-07-31T01:17:36;98849.66;;;25.61;53.04
5753;BME280;2901;42.140;24.760;2023-07-31T01:20:05;98841.44;;;25.53;53.53
5753;BME280;2901;42.140;24.760;2023-07-31T01:26:05;98839.06;;;25.61;53.23
5753;BME280;2901;42.140;24.760;2023-07-31T01:28:56;98834.25;;;25.55;53.45
5753;BME280;2901;42.140;24.760;2023-07-31T01:31:29;98847.59;;;25.53;53.59
5753;BME280;2901;42.140;24.760;2023-07-31T01:33:56;98837.44;;;25.47;53.65
5753;BME280;2901;42.140;24.760;2023-07-31T01:36:23;98851.66;;;25.35;54.13
5753;BME280;2901;42.140;24.760;2023-07-31T01:38:48;98831.63;;;25.09;55.23
5753;BME280;2901;42.140;24.760;2023-07-31T01:41:19;98844.47;;;25.02;55.68
5753;BME280;2901;42.140;24.760;2023-07-31T01:43:46;98848.72;;;24.81;56.18
5753;BME280;2901;42.140;24.760;2023-07-31T01:46:11;98841.56;;;24.70;56.67
5753;BME280;2901;42.140;24.760;2023-07-31T01:48:37;98830.69;;;24.62;57.25
5753;BME280;2901;42.140;24.760;2023-07-31T01:51:03;98836.72;;;24.64;57.29
5753;BME280;2901;42.140;24.760;2023-07-31T01:53:30;98831.31;;;24.66;57.07
5753;BME280;2901;42.140;24.760;2023-07-31T01:55:56;98837.47;;;24.66;57.55
5753;BME280;2901;42.140;24.760;2023-07-31T01:58:21;98831.56;;;24.63;57.28
5753;BME280;2901;42.140;24.760;2023-07-31T02:00:46;98825.50;;;24.61;57.55
5753;BME280;2901;42.140;24.760;2023-07-31T02:03:12;98834.81;;;24.66;57.34
5753;BME280;2901;42.140;24.760;2023-07-31T02:05:47;98830.19;;;24.57;57.52
5753;BME280;2901;42.140;24.760;2023-07-31T02:08:13;98842.09;;;24.52;57.91
5753;BME280;2901;42.140;24.760;2023-07-31T02:10:38;98838.72;;;24.50;57.70
5753;BME280;2901;42.140;24.760;2023-07-31T02:13:04;98844.97;;;24.49;58.33
5753;BME280;2901;42.140;24.760;2023-07-31T02:15:30;98822.69;;;24.27;58.71
5753;BME280;2901;42.140;24.760;2023-07-31T02:17:56;98839.81;;;24.35;58.66
5753;BME280;2901;42.140;24.760;2023-07-31T02:20:21;98828.63;;;24.31;59.19
5753;BME280;2901;42.140;24.760;2023-07-31T02:22:46;98828.00;;;24.27;58.54
5753;BME280;2901;42.140;24.760;2023-07-31T02:25:12;98835.06;;;24.40;58.71
5753;BME280;2901;42.140;24.760;2023-07-31T02:27:37;98830.38;;;24.43;59.55
5753;BME280;2901;42.140;24.760;2023-07-31T02:30:03;98834.03;;;24.53;60.20
5753;BME280;2901;42.140;24.760;2023-07-31T02:32:28;98831.78;;;24.60;61.12
5753;BME280;2901;42.140;24.760;2023-07-31T02:34:54;98818.75;;;24.57;62.87
5753;BME280;2901;42.140;24.760;2023-07-31T02:37:19;98816.63;;;24.62;62.83
5753;BME280;2901;42.140;24.760;2023-07-31T02:39:44;98814.06;;;24.60;65.17
5753;BME280;2901;42.140;24.760;2023-07-31T02:42:10;98819.03;;;24.65;66.50
5753;BME280;2901;42.140;24.760;2023-07-31T02:44:35;98817.34;;;24.64;68.50
5753;BME280;2901;42.140;24.760;2023-07-31T02:47:00;98812.41;;;24.59;70.76
5753;BME280;2901;42.140;24.760;2023-07-31T02:49:26;98819.38;;;24.60;71.25
5753;BME280;2901;42.140;24.760;2023-07-31T02:51:51;98810.38;;;24.63;72.53
5753;BME280;2901;42.140;24.760;2023-07-31T02:54:17;98810.84;;;24.68;72.63
5753;BME280;2901;42.140;24.760;2023-07-31T02:56:42;98808.81;;;24.71;73.00
5753;BME280;2901;42.140;24.760;2023-07-31T02:59:07;98806.19;;;24.71;74.94
5753;BME280;2901;42.140;24.760;2023-07-31T03:01:33;98795.31;;;24.63;75.37
5753;BME280;2901;42.140;24.760;2023-07-31T03:03:59;98802.69;;;24.71;76.79
5753;BME280;2901;42.140;24.760;2023-07-31T03:06:24;98797.63;;;24.68;77.56
5753;BME280;2901;42.140;24.760;2023-07-31T03:08:51;98796.91;;;24.66;78.01
5753;BME280;2901;42.140;24.760;2023-07-31T03:11:16;98799.31;;;24.69;78.84
5753;BME280;2901;42.140;24.760;2023-07-31T03:13:42;98798.47;;;24.68;78.66
5753;BME280;2901;42.140;24.760;2023-07-31T03:16:07;98807.13;;;24.70;79.44
5753;BME280;2901;42.140;24.760;2023-07-31T03:18:32;98810.25;;;24.64;82.29
5753;BME280;2901;42.140;24.760;2023-07-31T03:20:58;98797.63;;;24.44;87.67
5753;BME280;2901;42.140;24.760;2023-07-31T03:23:23;98814.13;;;24.24;92.05
5753;BME280;2901;42.140;24.760;2023-07-31T03:25:57;98822.06;;;23.88;96.69
5753;BME280;2901;42.140;24.760;2023-07-31T03:28:23;98821.81;;;23.54;100.00
5753;BME280;2901;42.140;24.760;2023-07-31T03:30:49;98841.56;;;23.23;100.00
5753;BME280;2901;42.140;24.760;2023-07-31T03:33:14;98833.47;;;22.87;100.00
5753;BME280;2901;42.140;24.760;2023-07-31T03:35:39;98837.31;;;22.69;100.00
5753;BME280;2901;42.140;24.760;2023-07-31T03:38:05;98829.63;;;22.39;100.00
5753;BME280;2901;42.140;24.760;2023-07-31T03:40:30;98849.63;;;22.29;100.00
5753;BME280;2901;42.140;24.760;2023-07-31T03:42:55;98848.22;;;22.23;100.00
5753;BME280;2901;42.140;24.760;2023-07-31T03:45:21;98848.13;;;22.25;100.00
5753;BME280;2901;42.140;24.760;2023-07-31T03:47:46;98862.72;;;22.31;100.00
5753;BME280;2901;42.140;24.760;2023-07-31T03:50:12;98877.69;;;22.30;100.00
5753;BME280;2901;42.140;24.760;2023-07-31T03:52:37;98883.34;;;22.24;100.00
5753;BME280;2901;42.140;24.760;2023-07-31T03:55:02;98884.94;;;22.27;100.00
5753;BME280;2901;42.140;24.760;2023-07-31T03:57:28;98885.94;;;22.11;100.00
5753;BME280;2901;42.140;24.760;2023-07-31T03:59:53;98888.84;;;21.79;100.00
5753;BME280;2901;42.140;24.760;2023-07-31T04:02:19;98894.13;;;21.64;100.00
5753;BME280;2901;42.140;24.760;2023-07-31T04:04:44;98882.91;;;21.61;100.00
5753;BME280;2901;42.140;24.760;2023-07-31T04:07:09;98886.22;;;21.64;100.00
5753;BME280;2901;42.140;24.760;2023-07-31T04:09:35;98891.22;;;21.69;100.00
5753;BME280;2901;42.140;24.760;2023-07-31T04:12:00;98895.34;;;21.73;100.00
5753;BME280;2901;42.140;24.760;2023-07-31T04:14:26;98897.88;;;21.74;100.00
5753;BME280;2901;42.140;24.760;2023-07-31T04:16:51;98895.25;;;21.74;100.00
5753;BME280;2901;42.140;24.760;2023-07-31T04:19:17;98902.50;;;21.85;100.00
5753;BME280;2901;42.140;24.760;2023-07-31T04:21:43;98904.91;;;21.90;100.00
5753;BME280;2901;42.140;24.760;2023-07-31T04:24:08;98906.56;;;21.91;100.00
5753;BME280;2901;42.140;24.760;2023-07-31T04:26:34;98911.25;;;22.00;100.00
5753;BME280;2901;42.140;24.760;2023-07-31T04:28:59;98908.16;;;22.07;100.00
5753;BME280;2901;42.140;24.760;2023-07-31T04:31:24;98909.56;;;22.13;100.00
5753;BME280;2901;42.140;24.760;2023-07-31T04:33:50;98911.63;;;22.22;100.00
5753;BME280;2901;42.140;24.760;2023-07-31T04:36:15;98912.09;;;22.29;100.00
5753;BME280;2901;42.140;24.760;2023-07-31T04:38:41;98913.69;;;22.31;100.00
5753;BME280;2901;42.140;24.760;2023-07-31T04:41:06;98920.47;;;22.35;100.00
5753;BME280;2901;42.140;24.760;2023-07-31T04:43:31;98916.31;;;22.31;100.00
5753;BME280;2901;42.140;24.760;2023-07-31T04:45:57;98920.47;;;22.35;100.00
5753;BME280;2901;42.140;24.760;2023-07-31T04:48:23;98910.66;;;22.37;100.00
5753;BME280;2901;42.140;24.760;2023-07-31T04:50:49;98908.25;;;22.47;100.00
5753;BME280;2901;42.140;24.760;2023-07-31T04:53:14;98905.88;;;22.56;100.00
5753;BME280;2901;42.140;24.760;2023-07-31T04:55:39;98908.97;;;22.63;100.00
5753;BME280;2901;42.140;24.760;2023-07-31T04:58:05;98911.34;;;22.67;100.00
5753;BME280;2901;42.140;24.760;2023-07-31T05:00:30;98908.88;;;22.79;100.00
5753;BME280;2901;42.140;24.760;2023-07-31T05:02:56;98910.91;;;22.88;100.00
5753;BME280;2901;42.140;24.760;2023-07-31T05:05:21;98905.66;;;23.00;100.00
5753;BME280;2901;42.140;24.760;2023-07-31T05:07:47;98911.16;;;23.10;100.00
5753;BME280;2901;42.140;24.760;2023-07-31T05:10:12;98903.97;;;23.12;100.00
5753;BME280;2901;42.140;24.760;2023-07-31T05:12:38;98902.09;;;23.14;100.00
5753;BME280;2901;42.140;24.760;2023-07-31T05:15:04;98913.09;;;23.20;100.00
5753;BME280;2901;42.140;24.760;2023-07-31T05:17:29;98908.56;;;23.35;100.00
5753;BME280;2901;42.140;24.760;2023-07-31T05:19:54;98908.66;;;23.34;100.00
5753;BME280;2901;42.140;24.760;2023-07-31T05:22:20;98905.19;;;23.33;100.00
5753;BME280;2901;42.140;24.760;2023-07-31T05:24:45;98906.66;;;23.37;100.00
5753;BME280;2901;42.140;24.760;2023-07-31T05:27:11;98909.94;;;23.28;100.00
5753;BME280;2901;42.140;24.760;2023-07-31T05:29:37;98913.94;;;23.21;100.00
5753;BME280;2901;42.140;24.760;2023-07-31T05:32:03;98916.78;;;23.18;100.00
5753;BME280;2901;42.140;24.760;2023-07-31T05:34:28;98916.78;;;23.18;100.00
5753;BME280;2901;42.140;24.760;2023-07-31T05:36:54;98918.25;;;23.22;100.00
5753;BME280;2901;42.140;24.760;2023-07-31T05:39:19;98922.19;;;23.29;100.00
5753;BME280;2901;42.140;24.760;2023-07-31T05:41:45;98913.09;;;23.33;100.00
5753;BME280;2901;42.140;24.760;2023-07-31T05:44:10;98918.56;;;23.44;100.00
5753;BME280;2901;42.140;24.760;2023-07-31T05:46:35;98926.16;;;23.49;100.00
5753;BME280;2901;42.140;24.760;2023-07-31T05:49:01;98926.16;;;23.49;100.00
5753;BME280;2901;42.140;24.760;2023-07-31T05:51:27;98922.25;;;23.54;100.00
5753;BME280;2901;42.140;24.760;2023-07-31T05:53:53;98920.34;;;23.56;100.00
5753;BME280;2901;42.140;24.760;2023-07-31T05:56:18;98925.41;;;23.72;100.00
5753;BME280;2901;42.140;24.760;2023-07-31T05:58:43;98918.97;;;23.89;100.00
5753;BME280;2901;42.140;24.760;2023-07-31T06:01:09;98931.31;;;24.01;100.00
5753;BME280;2901;42.140;24.760;2023-07-31T06:03:34;98927.06;;;24.11;100.00
5753;BME280;2901;42.140;24.760;2023-07-31T06:06:00;98933.00;;;24.27;100.00
5753;BME280;2901;42.140;24.760;2023-07-31T06:08:25;98928.97;;;24.34;100.00
5753;BME280;2901;42.140;24.760;2023-07-31T06:10:50;98923.53;;;24.48;100.00
5753;BME280;2901;42.140;24.760;2023-07-31T06:13:16;98915.53;;;24.61;98.09
5753;BME280;2901;42.140;24.760;2023-07-31T06:15:41;98902.91;;;24.64;96.25
5753;BME280;2901;42.140;24.760;2023-07-31T06:18:07;98916.00;;;24.78;95.75
5753;BME280;2901;42.140;24.760;2023-07-31T06:20:33;98916.28;;;24.87;95.12
5753;BME280;2901;42.140;24.760;2023-07-31T06:22:59;98915.72;;;24.94;94.81
5753;BME280;2901;42.140;24.760;2023-07-31T06:25:24;98910.72;;;25.02;93.80
5753;BME280;2901;42.140;24.760;2023-07-31T06:27:50;98916.78;;;25.15;94.29
5753;BME280;2901;42.140;24.760;2023-07-31T06:30:15;98919.69;;;25.23;94.60
5753;BME280;2901;42.140;24.760;2023-07-31T06:32:40;98907.09;;;25.38;92.99
5753;BME280;2901;42.140;24.760;2023-07-31T06:35:06;98922.69;;;25.54;91.59
5753;BME280;2901;42.140;24.760;2023-07-31T06:37:31;98921.44;;;25.47;91.19
5753;BME280;2901;42.140;24.760;2023-07-31T06:39:57;98915.44;;;25.56;91.57
5753;BME280;2901;42.140;24.760;2023-07-31T06:42:22;98916.19;;;25.69;91.65
5753;BME280;2901;42.140;24.760;2023-07-31T06:44:48;98908.25;;;25.80;90.73
5753;BME280;2901;42.140;24.760;2023-07-31T06:47:13;98915.38;;;25.91;90.26
5753;BME280;2901;42.140;24.760;2023-07-31T06:49:38;98920.94;;;25.88;88.94
5753;BME280;2901;42.140;24.760;2023-07-31T06:52:04;98908.03;;;25.94;88.99
5753;BME280;2901;42.140;24.760;2023-07-31T06:54:29;98889.81;;;26.01;89.08
5753;BME280;2901;42.140;24.760;2023-07-31T06:56:55;98913.25;;;26.18;87.53
5753;BME280;2901;42.140;24.760;2023-07-31T06:59:20;98912.00;;;26.22;86.41
5753;BME280;2901;42.140;24.760;2023-07-31T07:01:45;98915.75;;;26.19;86.07
5753;BME280;2901;42.140;24.760;2023-07-31T07:04:11;98918.88;;;26.13;86.20
5753;BME280;2901;42.140;24.760;2023-07-31T07:06:36;98919.00;;;26.12;86.50
5753;BME280;2901;42.140;24.760;2023-07-31T07:09:02;98916.34;;;26.12;85.75
5753;BME280;2901;42.140;24.760;2023-07-31T07:11:28;98906.69;;;26.33;86.58
5753;BME280;2901;42.140;24.760;2023-07-31T07:13:53;98924.28;;;26.56;86.04
5753;BME280;2901;42.140;24.760;2023-07-31T07:16:19;98914.16;;;26.50;84.90
5753;BME280;2901;42.140;24.760;2023-07-31T07:18:44;98906.91;;;26.52;85.18
5753;BME280;2901;42.140;24.760;2023-07-31T07:21:10;98904.94;;;26.65;84.45
5753;BME280;2901;42.140;24.760;2023-07-31T07:23:40;98897.19;;;26.73;84.33
5753;BME280;2901;42.140;24.760;2023-07-31T07:26:06;98913.25;;;26.72;84.37
5753;BME280;2901;42.140;24.760;2023-07-31T07:28:31;98900.19;;;26.80;83.54
5753;BME280;2901;42.140;24.760;2023-07-31T07:30:57;98916.69;;;26.95;84.27
5753;BME280;2901;42.140;24.760;2023-07-31T07:33:23;98904.78;;;26.89;84.22
5753;BME280;2901;42.140;24.760;2023-07-31T07:35:48;98905.28;;;27.04;83.91
5753;BME280;2901;42.140;24.760;2023-07-31T07:38:14;98902.41;;;27.07;83.84
5753;BME280;2901;42.140;24.760;2023-07-31T07:40:40;98909.94;;;27.22;82.92
5753;BME280;2901;42.140;24.760;2023-07-31T07:43:06;98903.78;;;27.43;80.88
5753;BME280;2901;42.140;24.760;2023-07-31T07:45:32;98906.38;;;27.54;80.18
5753;BME280;2901;42.140;24.760;2023-07-31T07:47:57;98889.59;;;27.83;79.75
5753;BME280;2901;42.140;24.760;2023-07-31T07:50:24;98908.56;;;28.00;78.10
5753;BME280;2901;42.140;24.760;2023-07-31T07:52:49;98898.63;;;27.92;78.38
5753;BME280;2901;42.140;24.760;2023-07-31T07:55:15;98897.81;;;27.71;77.68
5753;BME280;2901;42.140;24.760;2023-07-31T07:57:40;98892.88;;;27.66;78.47
5753;BME280;2901;42.140;24.760;2023-07-31T08:00:06;98907.16;;;27.65;77.93
5753;BME280;2901;42.140;24.760;2023-07-31T08:02:31;98899.00;;;27.88;78.50
5753;BME280;2901;42.140;24.760;2023-07-31T08:04:57;98901.16;;;28.03;76.33
5753;BME280;2901;42.140;24.760;2023-07-31T08:07:22;98899.34;;;28.04;75.80
5753;BME280;2901;42.140;24.760;2023-07-31T08:09:48;98900.00;;;28.17;76.38
5753;BME280;2901;42.140;24.760;2023-07-31T08:12:13;98904.94;;;28.21;75.82
5753;BME280;2901;42.140;24.760;2023-07-31T08:14:38;98892.91;;;28.37;73.25
5753;BME280;2901;42.140;24.760;2023-07-31T08:17:04;98891.41;;;28.53;71.71
5753;BME280;2901;42.140;24.760;2023-07-31T08:19:29;98892.66;;;28.59;71.26
5753;BME280;2901;42.140;24.760;2023-07-31T08:21:55;98884.56;;;28.70;71.63
5753;BME280;2901;42.140;24.760;2023-07-31T08:24:20;98879.53;;;28.86;71.24
5753;BME280;2901;42.140;24.760;2023-07-31T08:26:46;98878.13;;;28.92;69.72
5753;BME280;2901;42.140;24.760;2023-07-31T08:29:12;98882.47;;;28.93;69.58
5753;BME280;2901;42.140;24.760;2023-07-31T08:31:37;98879.97;;;29.10;68.15
5753;BME280;2901;42.140;24.760;2023-07-31T08:34:03;98876.31;;;28.92;69.33
5753;BME280;2901;42.140;24.760;2023-07-31T08:36:28;98878.28;;;28.80;69.64
5753;BME280;2901;42.140;24.760;2023-07-31T08:38:53;98882.88;;;28.78;70.19
5753;BME280;2901;42.140;24.760;2023-07-31T08:41:20;98878.56;;;29.06;69.55
5753;BME280;2901;42.140;24.760;2023-07-31T08:43:46;98880.94;;;29.00;68.34
5753;BME280;2901;42.140;24.760;2023-07-31T08:46:12;98886.25;;;29.09;67.66
5753;BME280;2901;42.140;24.760;2023-07-31T08:48:41;98879.66;;;29.32;66.08
5753;BME280;2901;42.140;24.760;2023-07-31T08:51:06;98878.69;;;29.43;65.01
5753;BME280;2901;42.140;24.760;2023-07-31T08:53:32;98876.25;;;29.59;64.93
5753;BME280;2901;42.140;24.760;2023-07-31T08:55:58;98882.34;;;29.89;62.60
5753;BME280;2901;42.140;24.760;2023-07-31T08:58:25;98859.00;;;29.91;61.54
5753;BME280;2901;42.140;24.760;2023-07-31T09:00:53;98878.00;;;30.15;61.55
5753;BME280;2901;42.140;24.760;2023-07-31T09:03:22;98883.34;;;30.15;61.44
5753;BME280;2901;42.140;24.760;2023-07-31T09:05:48;98876.00;;;29.99;61.96
5753;BME280;2901;42.140;24.760;2023-07-31T09:08:20;98881.50;;;29.88;61.22
5753;BME280;2901;42.140;24.760;2023-07-31T09:10:46;98874.22;;;29.71;61.65
5753;BME280;2901;42.140;24.760;2023-07-31T09:13:13;98881.63;;;29.40;61.65
5753;BME280;2901;42.140;24.760;2023-07-31T09:15:39;98877.41;;;29.38;61.70
5753;BME280;2901;42.140;24.760;2023-07-31T09:18:06;98887.47;;;29.63;60.11
5753;BME280;2901;42.140;24.760;2023-07-31T09:20:32;98875.19;;;29.89;60.51
5753;BME280;2901;42.140;24.760;2023-07-31T09:23:06;98868.13;;;30.25;58.47
5753;BME280;2901;42.140;24.760;2023-07-31T09:25:32;98876.53;;;30.57;56.23
5753;BME280;2901;42.140;24.760;2023-07-31T09:28:02;98869.38;;;30.75;55.60
5753;BME280;2901;42.140;24.760;2023-07-31T09:30:28;98861.97;;;31.05;54.11
5753;BME280;2901;42.140;24.760;2023-07-31T09:33:02;98856.09;;;31.01;54.01
5753;BME280;2901;42.140;24.760;2023-07-31T09:35:30;98848.88;;;30.84;52.44
5753;BME280;2901;42.140;24.760;2023-07-31T09:38:04;98862.16;;;30.76;52.88
5753;BME280;2901;42.140;24.760;2023-07-31T09:40:31;98850.78;;;30.92;53.76
5753;BME280;2901;42.140;24.760;2023-07-31T09:42:59;98858.50;;;30.95;52.66
5753;BME280;2901;42.140;24.760;2023-07-31T09:45:26;98844.22;;;30.86;54.21
5753;BME280;2901;42.140;24.760;2023-07-31T09:47:51;98850.88;;;31.00;52.32
5753;BME280;2901;42.140;24.760;2023-07-31T09:50:17;98844.88;;;31.23;51.47
5753;BME280;2901;42.140;24.760;2023-07-31T09:52:43;98846.94;;;31.81;50.58
5753;BME280;2901;42.140;24.760;2023-07-31T09:55:09;98848.53;;;32.42;48.21
5753;BME280;2901;42.140;24.760;2023-07-31T09:57:41;98856.66;;;32.66;45.80
5753;BME280;2901;42.140;24.760;2023-07-31T10:00:10;98858.50;;;32.15;45.62
5753;BME280;2901;42.140;24.760;2023-07-31T10:02:36;98855.59;;;31.75;45.88
5753;BME280;2901;42.140;24.760;2023-07-31T10:05:03;98846.75;;;31.74;46.67
5753;BME280;2901;42.140;24.760;2023-07-31T10:07:30;98842.59;;;31.88;45.46
5753;BME280;2901;42.140;24.760;2023-07-31T10:10:00;98840.06;;;32.04;46.56
5753;BME280;2901;42.140;24.760;2023-07-31T10:12:27;98834.38;;;32.07;48.10
5753;BME280;2901;42.140;24.760;2023-07-31T10:14:55;98833.88;;;32.12;48.37
5753;BME280;2901;42.140;24.760;2023-07-31T10:17:21;98827.72;;;32.27;48.60
5753;BME280;2901;42.140;24.760;2023-07-31T10:19:48;98822.50;;;32.18;47.53
5753;BME280;2901;42.140;24.760;2023-07-31T10:22:14;98821.88;;;32.24;47.12
5753;BME280;2901;42.140;24.760;2023-07-31T10:24:42;98824.13;;;32.61;46.12
5753;BME280;2901;42.140;24.760;2023-07-31T10:27:08;98824.31;;;32.92;45.29
5753;BME280;2901;42.140;24.760;2023-07-31T10:29:35;98815.59;;;32.81;44.39
5753;BME280;2901;42.140;24.760;2023-07-31T10:32:02;98804.22;;;32.79;43.88
5753;BME280;2901;42.140;24.760;2023-07-31T10:34:33;98797.31;;;32.77;43.92
5753;BME280;2901;42.140;24.760;2023-07-31T10:37:29;98807.06;;;32.86;44.45
5753;BME280;2901;42.140;24.760;2023-07-31T10:40:09;98801.19;;;32.74;42.94
5753;BME280;2901;42.140;24.760;2023-07-31T10:42:48;98799.34;;;32.75;43.57
5753;BME280;2901;42.140;24.760;2023-07-31T10:45:32;98794.41;;;32.54;45.25
5753;BME280;2901;42.140;24.760;2023-07-31T10:48:05;98788.94;;;32.72;45.22
5753;BME280;2901;42.140;24.760;2023-07-31T10:50:32;98781.06;;;33.11;43.54
5753;BME280;2901;42.140;24.760;2023-07-31T10:53:01;98776.59;;;33.58;43.01
5753;BME280;2901;42.140;24.760;2023-07-31T10:55:31;98780.56;;;34.17;41.66
5753;BME280;2901;42.140;24.760;2023-07-31T10:58:05;98767.50;;;34.14;40.43
5753;BME280;2901;42.140;24.760;2023-07-31T11:00:31;98776.16;;;34.24;39.94
5753;BME280;2901;42.140;24.760;2023-07-31T11:03:04;98761.00;;;33.92;38.44
5753;BME280;2901;42.140;24.760;2023-07-31T11:05:47;98771.81;;;33.84;40.31
5753;BME280;2901;42.140;24.760;2023-07-31T11:10:49;98768.84;;;33.71;39.92
5753;BME280;2901;42.140;24.760;2023-07-31T11:13:15;98769.19;;;33.99;40.04
5753;BME280;2901;42.140;24.760;2023-07-31T11:15:40;98773.47;;;33.85;44.73
5753;BME280;2901;42.140;24.760;2023-07-31T11:18:05;98781.94;;;33.66;46.37
5753;BME280;2901;42.140;24.760;2023-07-31T11:20:34;98800.84;;;32.77;48.94
5753;BME280;2901;42.140;24.760;2023-07-31T11:23:06;98780.84;;;31.89;52.49
5753;BME280;2901;42.140;24.760;2023-07-31T11:25:32;98789.22;;;30.83;57.13
5753;BME280;2901;42.140;24.760;2023-07-31T11:28:05;98793.44;;;30.68;58.56
5753;BME280;2901;42.140;24.760;2023-07-31T11:30:31;98798.59;;;30.34;59.31
5753;BME280;2901;42.140;24.760;2023-07-31T11:32:57;98786.47;;;30.22;60.23
5753;BME280;2901;42.140;24.760;2023-07-31T11:35:22;98785.94;;;29.92;59.77
5753;BME280;2901;42.140;24.760;2023-07-31T11:37:48;98784.31;;;29.71;60.67
5753;BME280;2901;42.140;24.760;2023-07-31T11:40:14;98777.41;;;29.78;60.44
5753;BME280;2901;42.140;24.760;2023-07-31T11:42:40;98787.88;;;29.99;60.32
5753;BME280;2901;42.140;24.760;2023-07-31T11:45:07;98771.28;;;30.41;59.46
5753;BME280;2901;42.140;24.760;2023-07-31T11:47:33;98782.66;;;30.60;56.98
5753;BME280;2901;42.140;24.760;2023-07-31T11:50:03;98771.19;;;30.85;54.95
5753;BME280;2901;42.140;24.760;2023-07-31T11:52:40;98784.91;;;30.91;53.67
5753;BME280;2901;42.140;24.760;2023-07-31T11:55:07;98784.13;;;30.55;54.13
5753;BME280;2901;42.140;24.760;2023-07-31T11:57:36;98759.97;;;30.64;54.84
5753;BME280;2901;42.140;24.760;2023-07-31T12:00:02;98765.78;;;30.77;52.75
5753;BME280;2901;42.140;24.760;2023-07-31T12:02:28;98772.84;;;30.86;54.43
5753;BME280;2901;42.140;24.760;2023-07-31T12:04:54;98768.56;;;30.94;54.90
5753;BME280;2901;42.140;24.760;2023-07-31T12:07:19;98772.50;;;30.81;56.06
5753;BME280;2901;42.140;24.760;2023-07-31T12:09:54;98771.03;;;31.05;54.80
5753;BME280;2901;42.140;24.760;2023-07-31T12:12:21;98758.31;;;31.07;53.82
5753;BME280;2901;42.140;24.760;2023-07-31T12:14:47;98751.91;;;31.25;53.58
5753;BME280;2901;42.140;24.760;2023-07-31T12:17:14;98750.91;;;31.52;52.27
5753;BME280;2901;42.140;24.760;2023-07-31T12:19:39;98752.72;;;31.85;52.17
5753;BME280;2901;42.140;24.760;2023-07-31T12:22:13;98745.97;;;32.07;51.08
5753;BME280;2901;42.140;24.760;2023-07-31T12:24:39;98733.78;;;32.37;50.64
5753;BME280;2901;42.140;24.760;2023-07-31T12:27:12;98722.88;;;32.38;50.64
5753;BME280;2901;42.140;24.760;2023-07-31T12:29:38;98733.44;;;32.48;48.76
5753;BME280;2901;42.140;24.760;2023-07-31T12:32:18;98734.16;;;32.66;47.30
5753;BME280;2901;42.140;24.760;2023-07-31T12:34:44;98729.25;;;32.86;48.24
5753;BME280;2901;42.140;24.760;2023-07-31T12:37:09;98726.00;;;33.31;47.17
5753;BME280;2901;42.140;24.760;2023-07-31T12:39:35;98711.66;;;33.47;45.10
5753;BME280;2901;42.140;24.760;2023-07-31T12:42:00;98721.84;;;33.59;45.00
5753;BME280;2901;42.140;24.760;2023-07-31T12:44:25;98721.78;;;33.83;41.66
5753;BME280;2901;42.140;24.760;2023-07-31T12:46:51;98723.09;;;33.87;39.85
5753;BME280;2901;42.140;24.760;2023-07-31T12:49:16;98721.31;;;34.03;40.48
5753;BME280;2901;42.140;24.760;2023-07-31T12:51:41;98723.53;;;34.30;40.29
5753;BME280;2901;42.140;24.760;2023-07-31T12:54:07;98717.47;;;34.73;40.59
5753;BME280;2901;42.140;24.760;2023-07-31T12:56:32;98724.53;;;34.74;39.43
5753;BME280;2901;42.140;24.760;2023-07-31T12:58:58;98714.69;;;34.81;39.71
5753;BME280;2901;42.140;24.760;2023-07-31T13:01:23;98718.81;;;34.92;38.77
5753;BME280;2901;42.140;24.760;2023-07-31T13:03:48;98718.53;;;34.41;38.83
5753;BME280;2901;42.140;24.760;2023-07-31T13:06:14;98708.28;;;34.22;41.35
5753;BME280;2901;42.140;24.760;2023-07-31T13:08:39;98712.09;;;34.05;44.74
5753;BME280;2901;42.140;24.760;2023-07-31T13:11:04;98709.88;;;33.78;47.34